Time;durP1;ratioP1;P1;durP2;ratioP2;P2;SDS_P1;SDS_P2;PMS_P1;PMS_P2;Temp;Humidity;BMP_temperature;BMP_pressure;BME280_temperature;BME280_humidity;BME280_pressure;Samples;Min_cycle;Max_cycle;Signal;HPM_P1;HPM_P2
2021/01/03 00:01:44;;;;;;;5.00;3.78;;;3.40;82.30;;;;;;6195457;28;20062;-75
2021/01/03 00:04:45;;;;;;;3.97;2.88;;;3.40;82.00;;;;;;6195749;28;20046;-76
2021/01/03 00:07:47;;;;;;;4.07;2.83;;;3.40;82.20;;;;;;6195175;28;20081;-76
2021/01/03 00:10:48;;;;;;;4.25;3.20;;;3.40;82.70;;;;;;6195905;28;20054;-76
2021/01/03 00:13:50;;;;;;;3.85;2.97;;;3.40;82.70;;;;;;6195470;28;20162;-76
2021/01/03 00:16:53;;;;;;;3.17;2.80;;;3.40;82.80;;;;;;6195410;28;20069;-76
2021/01/03 00:19:55;;;;;;;4.03;3.63;;;3.40;82.30;;;;;;6196088;28;20137;-77
2021/01/03 00:22:57;;;;;;;4.97;3.47;;;3.40;83.10;;;;;;6199764;28;20051;-76
2021/01/03 00:25:58;;;;;;;7.82;2.90;;;3.40;83.30;;;;;;6200225;28;20066;-77
2021/01/03 00:28:59;;;;;;;4.47;3.35;;;3.40;82.70;;;;;;6199771;28;20050;-76
2021/01/03 00:32:01;;;;;;;4.47;4.07;;;3.40;83.00;;;;;;6200632;28;20057;-76
2021/01/03 00:35:04;;;;;;;4.03;3.42;;;3.40;84.00;;;;;;6200015;28;20579;-76
2021/01/03 00:38:10;;;;;;;3.70;2.97;;;3.40;83.40;;;;;;6199229;28;20057;-77
2021/01/03 00:41:11;;;;;;;5.60;3.38;;;3.50;83.60;;;;;;6199805;28;20046;-76
2021/01/03 00:44:13;;;;;;;3.65;3.15;;;3.40;83.50;;;;;;6200230;28;20489;-76
2021/01/03 00:47:14;;;;;;;3.75;3.25;;;3.40;82.30;;;;;;6199266;28;20059;-76
2021/01/03 00:50:15;;;;;;;4.20;3.63;;;3.40;82.60;;;;;;6199668;28;20077;-76
2021/01/03 00:53:18;;;;;;;6.13;4.10;;;3.40;81.60;;;;;;6199303;28;20046;-76
2021/01/03 00:56:19;;;;;;;5.23;3.73;;;3.30;82.00;;;;;;6199270;28;20050;-76
2021/01/03 00:59:20;;;;;;;3.92;3.50;;;3.30;82.20;;;;;;6200277;28;20150;-76
2021/01/03 01:02:21;;;;;;;5.37;3.70;;;3.30;82.10;;;;;;6199159;28;20543;-76
2021/01/03 01:05:24;;;;;;;4.65;3.72;;;3.30;82.90;;;;;;6199325;28;20204;-76
2021/01/03 01:08:26;;;;;;;4.47;4.05;;;3.30;83.40;;;;;;6198419;28;20051;-76
2021/01/03 01:11:29;;;;;;;5.38;4.05;;;3.30;83.10;;;;;;6199500;28;20703;-77
2021/01/03 01:14:30;;;;;;;9.13;4.03;;;3.30;83.10;;;;;;6199027;28;20050;-76
2021/01/03 01:17:32;;;;;;;4.90;4.40;;;3.30;83.40;;;;;;6198341;28;20129;-76
2021/01/03 01:20:34;;;;;;;4.25;3.85;;;3.30;83.30;;;;;;6199022;28;20054;-76
2021/01/03 01:23:36;;;;;;;4.88;4.22;;;3.30;83.20;;;;;;6199294;28;20561;-76
2021/01/03 01:26:37;;;;;;;4.40;3.47;;;3.30;83.40;;;;;;6198707;28;20088;-77
2021/01/03 01:29:39;;;;;;;5.10;4.43;;;3.30;83.50;;;;;;6198965;28;20109;-76
2021/01/03 01:32:40;;;;;;;3.53;3.13;;;3.30;83.70;;;;;;6199183;28;20050;-76
2021/01/03 01:35:42;;;;;;;5.22;4.25;;;3.30;83.90;;;;;;6198426;28;20056;-77
2021/01/03 01:38:44;;;;;;;4.70;3.47;;;3.40;84.40;;;;;;6198158;28;20133;-76
2021/01/03 01:41:45;;;;;;;5.47;4.10;;;3.30;83.20;;;;;;6198385;28;20524;-77
2021/01/03 01:44:47;;;;;;;4.45;3.05;;;3.30;83.10;;;;;;6196310;28;20512;-76
2021/01/03 01:47:52;;;;;;;4.00;3.60;;;3.30;82.90;;;;;;6173595;28;20059;-76
2021/01/03 01:50:57;;;;;;;4.93;4.50;;;3.30;82.90;;;;;;6174406;28;20043;-76
2021/01/03 01:54:05;;;;;;;5.90;3.50;;;3.30;84.00;;;;;;6173938;28;20412;-76
2021/01/03 01:57:10;;;;;;;5.30;4.47;;;3.30;83.00;;;;;;6173311;28;20050;-76
2021/01/03 02:00:14;;;;;;;6.47;4.05;;;3.30;83.40;;;;;;6174102;28;20046;-76
2021/01/03 02:03:24;;;;;;;4.85;3.83;;;3.30;83.30;;;;;;6173632;28;20051;-77
2021/01/03 02:06:31;;;;;;;4.80;4.25;;;3.30;82.50;;;;;;6173120;28;20054;-77
2021/01/03 02:09:43;;;;;;;5.47;4.07;;;3.20;82.60;;;;;;6173831;28;20054;-76
2021/01/03 02:12:47;;;;;;;3.63;3.33;;;3.20;82.10;;;;;;6173938;28;20050;-76
2021/01/03 02:15:49;;;;;;;4.63;4.15;;;3.20;82.10;;;;;;6173658;28;20055;-76
2021/01/03 02:18:52;;;;;;;5.13;4.00;;;3.20;82.70;;;;;;6173510;28;20138;-76
2021/01/03 02:22:02;;;;;;;4.95;3.25;;;3.20;82.40;;;;;;6173659;28;20097;-76
2021/01/03 02:25:06;;;;;;;4.18;3.38;;;3.20;83.00;;;;;;6172794;28;20058;-76
2021/01/03 02:28:14;;;;;;;4.20;3.47;;;3.20;83.80;;;;;;6173155;28;20053;-76
2021/01/03 02:31:16;;;;;;;;;;;3.20;83.40;;;;;;6173749;28;20127;-76
2021/01/03 02:34:25;;;;;;;5.30;3.97;;;3.20;85.00;;;;;;6173056;28;19928;-76
2021/01/03 02:37:32;;;;;;;7.10;3.88;;;3.20;84.40;;;;;;6172466;28;20051;-77
2021/01/03 02:40:35;;;;;;;4.97;4.53;;;3.20;84.50;;;;;;6173025;28;20051;-76
2021/01/03 02:43:36;;;;;;;4.75;4.22;;;3.20;84.40;;;;;;6172854;28;20109;-76
2021/01/03 02:46:38;;;;;;;7.10;3.92;;;3.20;85.10;;;;;;6172332;28;20053;-77
2021/01/03 02:49:39;;;;;;;6.13;5.27;;;3.20;85.10;;;;;;6172962;28;20043;-76
2021/01/03 02:52:43;;;;;;;8.07;5.20;;;3.20;84.60;;;;;;6172822;28;20428;-76
2021/01/03 02:55:45;;;;;;;7.40;5.78;;;3.20;84.30;;;;;;6172252;28;20051;-76
2021/01/03 02:58:46;;;;;;;6.57;5.72;;;3.20;85.00;;;;;;6172629;28;20130;-76
2021/01/03 03:01:47;;;;;;;5.80;5.22;;;3.20;84.30;;;;;;6172106;28;20113;-76
2021/01/03 03:04:49;;;;;;;6.40;4.80;;;3.20;85.10;;;;;;6172315;28;20047;-76
2021/01/03 03:07:50;;;;;;;6.13;5.43;;;3.20;85.80;;;;;;6132342;28;20065;-77
2021/01/03 03:10:53;;;;;;;6.55;4.95;;;3.20;85.20;;;;;;6185694;28;20054;-76
2021/01/03 03:13:54;;;;;;;5.88;5.20;;;3.20;86.00;;;;;;6196704;28;20182;-76
2021/01/03 03:16:56;;;;;;;8.18;5.55;;;3.20;86.40;;;;;;6195368;28;20431;-76
2021/01/03 03:19:57;;;;;;;7.67;6.30;;;3.30;86.60;;;;;;6196973;28;20057;-76
2021/01/03 03:22:58;;;;;;;8.32;7.15;;;3.30;86.90;;;;;;6196047;28;20046;-76
2021/01/03 03:26:01;;;;;;;8.63;6.77;;;3.30;86.70;;;;;;6195235;28;20427;-76
2021/01/03 03:29:02;;;;;;;8.00;6.30;;;3.30;86.40;;;;;;6196046;28;20050;-77
2021/01/03 03:32:04;;;;;;;10.60;7.18;;;3.30;86.60;;;;;;6195968;28;20512;-76
2021/01/03 03:35:07;;;;;;;8.40;6.60;;;3.30;86.90;;;;;;6196023;28;20129;-76
2021/01/03 03:38:08;;;;;;;13.00;7.60;;;3.30;87.40;;;;;;6195221;28;20050;-76
2021/01/03 03:41:17;;;;;;;7.63;6.22;;;3.30;87.70;;;;;;6195410;28;20504;-75
2021/01/03 03:44:19;;;;;;;9.20;7.18;;;3.30;86.90;;;;;;6196032;28;20050;-76
2021/01/03 03:47:20;;;;;;;8.77;7.18;;;3.30;87.30;;;;;;6195436;28;20061;-76
2021/01/03 03:50:24;;;;;;;7.82;6.63;;;3.30;87.20;;;;;;6196271;28;20050;-77
2021/01/03 03:53:25;;;;;;;12.37;7.63;;;3.30;87.30;;;;;;6195364;28;20452;-76
2021/01/03 03:56:27;;;;;;;10.48;6.93;;;3.30;87.40;;;;;;6196598;28;20065;-77
2021/01/03 03:59:29;;;;;;;9.65;7.57;;;3.20;87.70;;;;;;6201231;28;20137;-76
2021/01/03 04:02:31;;;;;;;8.35;6.47;;;3.20;87.40;;;;;;6200568;28;20054;-76
2021/01/03 04:05:32;;;;;;;11.60;8.43;;;3.20;87.80;;;;;;6200252;28;20058;-76
2021/01/03 04:08:36;;;;;;;10.13;8.03;;;3.30;88.30;;;;;;6200142;28;20694;-76
2021/01/03 04:11:40;;;;;;;10.85;8.00;;;3.20;88.10;;;;;;6201140;28;20166;-77
2021/01/03 04:14:41;;;;;;;13.50;8.10;;;3.30;88.10;;;;;;6200190;28;20557;-77
2021/01/03 04:17:44;;;;;;;11.32;9.65;;;3.20;88.30;;;;;;6199544;28;20092;-76
2021/01/03 04:20:45;;;;;;;12.07;8.90;;;3.30;88.50;;;;;;6200177;28;20046;-76
2021/01/03 04:23:47;;;;;;;10.98;8.10;;;3.20;89.10;;;;;;6200185;28;20046;-76
2021/01/03 04:26:58;;;;;;;12.55;9.38;;;3.20;89.60;;;;;;6199902;28;20470;-77
2021/01/03 04:29:59;;;;;;;13.85;10.32;;;3.20;89.80;;;;;;6195424;28;20062;-76
2021/01/03 04:33:00;;;;;;;16.30;10.10;;;3.20;90.30;;;;;;6200523;28;20684;-77
2021/01/03 04:36:02;;;;;;;16.67;12.70;;;3.10;90.70;;;;;;6200242;28;20081;-77
2021/01/03 04:39:05;;;;;;;19.80;14.13;;;3.00;91.00;;;;;;6225964;23;20621;-76
2021/01/03 04:42:09;;;;;;;18.03;12.00;;;3.00;91.40;;;;;;6225478;28;20057;-76
2021/01/03 04:45:17;;;;;;;17.50;12.45;;;3.00;91.70;;;;;;6224804;28;20046;-76
2021/01/03 04:48:23;;;;;;;16.25;13.13;;;2.90;91.90;;;;;;6224766;28;20068;-76
2021/01/03 04:51:29;;;;;;;16.63;12.73;;;2.90;92.00;;;;;;6225789;28;20127;-76
2021/01/03 04:54:34;;;;;;;19.50;13.75;;;2.80;92.30;;;;;;6224696;28;20053;-76
2021/01/03 04:57:47;;;;;;;18.00;13.10;;;2.80;92.50;;;;;;6224622;28;20054;-76
2021/01/03 05:00:58;;;;;;;20.37;13.63;;;2.80;92.60;;;;;;6224796;28;20418;-76
2021/01/03 05:04:35;;;;;;;16.07;12.30;;;2.80;92.80;;;;;;6225107;28;20054;-76
2021/01/03 05:07:42;;;;;;;16.50;12.40;;;2.80;92.70;;;;;;6223199;28;20092;-76
2021/01/03 05:10:44;;;;;;;19.17;11.97;;;2.70;93.00;;;;;;6224308;28;20050;-76
2021/01/03 05:14:04;;;;;;;20.37;13.97;;;2.60;93.30;;;;;;6224651;28;20045;-76
2021/01/03 05:17:05;;;;;;;21.02;13.30;;;2.50;93.70;;;;;;6224094;28;20042;-75
2021/01/03 05:20:08;;;;;;;19.67;13.10;;;2.40;93.70;;;;;;6225593;28;20096;-76
2021/01/03 05:23:15;;;;;;;20.27;13.43;;;2.40;97.40;;;;;;6225323;28;20129;-76
2021/01/03 05:26:28;;;;;;;21.70;13.93;;;2.40;96.80;;;;;;6224155;28;20120;-76
2021/01/03 05:29:30;;;;;;;22.07;15.63;;;2.20;97.40;;;;;;6224152;28;20050;-76
2021/01/03 05:32:33;;;;;;;27.57;16.23;;;2.20;97.70;;;;;;6223811;28;20131;-75
2021/01/03 05:35:38;;;;;;;23.47;14.33;;;2.20;98.00;;;;;;6223920;28;20251;-75
2021/01/03 05:38:42;;;;;;;24.57;16.10;;;2.20;98.40;;;;;;6222695;28;20046;-76
2021/01/03 05:42:02;;;;;;;26.33;17.57;;;2.20;98.50;;;;;;6223903;28;20050;-76
2021/01/03 05:45:07;;;;;;;24.70;15.87;;;2.10;98.80;;;;;;6223980;28;20088;-75
2021/01/03 05:48:21;;;;;;;23.70;15.67;;;2.00;98.80;;;;;;6213502;28;20053;-75
2021/01/03 05:51:35;;;;;;;23.67;15.23;;;2.00;99.20;;;;;;6210131;28;20046;-77
2021/01/03 05:54:38;;;;;;;27.83;17.57;;;2.10;99.50;;;;;;6210950;28;20623;-76
2021/01/03 05:57:40;;;;;;;25.30;17.30;;;2.00;99.70;;;;;;6210149;28;20042;-77
2021/01/03 06:00:42;;;;;;;22.97;16.83;;;2.00;99.70;;;;;;6209526;28;20066;-77
2021/01/03 06:03:44;;;;;;;29.70;18.43;;;2.10;99.80;;;;;;6208871;28;20140;-77
2021/01/03 06:07:00;;;;;;;28.17;18.87;;;2.00;99.70;;;;;;6207407;28;20046;-77
2021/01/03 06:10:02;;;;;;;26.17;17.20;;;2.30;99.90;;;;;;6207887;28;20053;-77
2021/01/03 06:13:05;;;;;;;28.70;19.30;;;2.00;99.90;;;;;;6208846;28;20472;-77
2021/01/03 06:16:08;;;;;;;30.60;21.13;;;2.00;99.90;;;;;;6207081;28;20050;-76
2021/01/03 06:19:23;;;;;;;30.83;19.27;;;2.00;99.90;;;;;;6204679;28;20038;-77
2021/01/03 06:22:39;;;;;;;31.17;20.83;;;2.00;99.90;;;;;;6208637;28;20050;-76
2021/01/03 06:25:49;;;;;;;33.70;21.17;;;2.00;99.90;;;;;;6208580;28;20058;-76
2021/01/03 06:28:53;;;;;;;33.07;20.50;;;2.00;99.90;;;;;;6208372;28;20470;-77
2021/01/03 06:32:30;;;;;;;30.10;19.20;;;2.00;99.90;;;;;;6209667;28;20057;-77
2021/01/03 06:35:35;;;;;;;29.43;18.83;;;2.00;99.90;;;;;;6209348;28;20053;-76
2021/01/03 06:39:00;;;;;;;33.40;19.67;;;1.90;99.90;;;;;;6206932;28;20050;-77
2021/01/03 06:42:04;;;;;;;37.73;22.33;;;1.90;99.70;;;;;;6209815;28;20061;-76
2021/01/03 06:45:38;;;;;;;31.23;20.77;;;1.90;99.90;;;;;;6207637;28;20052;-76
2021/01/03 06:49:12;;;;;;;43.93;25.63;;;1.90;99.90;;;;;;6199029;28;20110;-76
2021/01/03 06:52:44;;;;;;;34.07;20.57;;;1.90;99.90;;;;;;6209117;28;20124;-77
2021/01/03 06:56:23;;;;;;;31.30;18.23;;;1.90;99.80;;;;;;6209267;28;20049;-75
2021/01/03 07:00:12;;;;;;;26.52;17.58;;;1.90;99.90;;;;;;6208340;28;20052;-76
2021/01/03 07:03:17;;;;;;;30.75;18.38;;;1.80;99.90;;;;;;6140130;28;20099;-77
2021/01/03 07:06:21;;;;;;;30.23;16.63;;;1.80;99.90;;;;;;6138999;28;20053;-77
2021/01/03 07:09:22;;;;;;;30.53;19.10;;;1.80;99.90;;;;;;6213766;28;20042;-77
2021/01/03 07:12:43;;;;;;;31.57;19.30;;;1.80;99.90;;;;;;6210847;28;20052;-77
2021/01/03 07:15:44;;;;;;;27.57;18.70;;;1.90;99.90;;;;;;6213086;28;20061;-76
2021/01/03 07:18:49;;;;;;;25.90;17.17;;;1.80;99.90;;;;;;6202317;28;20129;-77
2021/01/03 07:21:52;;;;;;;38.37;21.10;;;1.90;99.90;;;;;;6213199;28;20046;-77
2021/01/03 07:25:10;;;;;;;35.63;18.90;;;1.80;99.90;;;;;;6217117;28;20042;-76
2021/01/03 07:28:15;;;;;;;34.58;21.02;;;1.90;99.90;;;;;;6208110;28;20046;-77
2021/01/03 07:31:50;;;;;;;37.93;22.60;;;1.80;99.90;;;;;;6212609;28;20046;-77
2021/01/03 07:34:53;;;;;;;35.17;19.53;;;1.90;99.90;;;;;;6164569;28;20064;-77
2021/01/03 07:38:16;;;;;;;35.13;20.70;;;1.80;99.90;;;;;;6208541;28;20508;-78
2021/01/03 07:41:27;;;;;;;35.17;22.93;;;1.80;99.90;;;;;;6215138;28;20111;-77
2021/01/03 07:44:32;;;;;;;32.60;21.37;;;1.80;99.90;;;;;;6219742;28;20152;-78
2021/01/03 07:47:40;;;;;;;37.83;23.13;;;1.80;99.90;;;;;;6216436;28;20054;-78
2021/01/03 07:50:41;;;;;;;38.53;21.27;;;1.90;99.90;;;;;;6213155;28;20046;-78
2021/01/03 07:53:43;;;;;;;40.27;21.60;;;2.00;99.90;;;;;;6217699;28;20101;-79
2021/01/03 07:56:47;;;;;;;40.17;21.43;;;2.70;99.90;;;;;;6218334;28;20101;-79
2021/01/03 07:59:49;;;;;;;33.13;20.70;;;2.40;99.90;;;;;;6214019;28;20057;-78
2021/01/03 08:02:57;;;;;;;28.43;19.77;;;2.30;99.90;;;;;;6219730;28;20120;-79
2021/01/03 08:06:04;;;;;;;;;;;2.40;99.90;;;;;;6220636;28;20550;-78
2021/01/03 08:09:06;;;;;;;28.00;17.13;;;2.40;99.90;;;;;;6218405;28;19925;-77
2021/01/03 08:12:15;;;;;;;30.20;18.40;;;2.30;99.90;;;;;;6212537;28;20077;-77
2021/01/03 08:15:26;;;;;;;24.93;16.30;;;2.30;99.90;;;;;;6215980;28;20045;-78
2021/01/03 08:18:30;;;;;;;33.33;18.90;;;2.20;99.90;;;;;;6218500;28;20038;-78
2021/01/03 08:21:33;;;;;;;26.60;17.67;;;2.20;99.90;;;;;;6222733;28;20105;-79
2021/01/03 08:24:35;;;;;;;26.80;16.23;;;2.20;99.90;;;;;;6214680;28;20543;-78
2021/01/03 08:27:42;;;;;;;27.80;17.93;;;2.10;99.90;;;;;;6213774;28;20048;-77
2021/01/03 08:30:45;;;;;;;29.07;19.17;;;2.20;99.90;;;;;;6216354;28;20058;-78
2021/01/03 08:33:50;;;;;;;30.37;18.43;;;2.70;99.90;;;;;;6210835;28;20045;-77
2021/01/03 08:36:51;;;;;;;28.97;18.10;;;2.60;99.90;;;;;;6212956;28;20045;-77
2021/01/03 08:39:55;;;;;;;31.13;17.90;;;2.50;99.90;;;;;;6213986;28;20084;-77
2021/01/03 08:43:01;;;;;;;30.03;17.00;;;2.40;99.90;;;;;;6217725;28;20042;-77
2021/01/03 08:46:05;;;;;;;30.13;18.80;;;2.40;99.90;;;;;;6220890;28;20713;-77
2021/01/03 08:49:09;;;;;;;33.27;19.57;;;2.40;99.90;;;;;;6223622;28;20053;-78
2021/01/03 08:52:18;;;;;;;25.70;18.13;;;2.30;99.90;;;;;;6219800;28;20057;-77
2021/01/03 08:55:21;;;;;;;31.97;19.70;;;2.30;99.90;;;;;;6224632;28;20054;-78
2021/01/03 08:58:22;;;;;;;32.03;18.33;;;2.30;99.90;;;;;;6210777;28;20120;-78
2021/01/03 09:01:28;;;;;;;27.33;18.43;;;2.30;99.90;;;;;;6221309;28;20070;-78
2021/01/03 09:04:30;;;;;;;30.97;21.93;;;2.30;99.90;;;;;;6208190;28;20050;-78
2021/01/03 09:07:35;;;;;;;33.60;20.13;;;2.30;99.90;;;;;;6216752;28;20050;-79
2021/01/03 09:10:40;;;;;;;32.60;17.97;;;2.30;99.90;;;;;;6217222;28;20042;-76
2021/01/03 09:13:47;;;;;;;32.70;19.87;;;2.30;99.90;;;;;;6212753;28;20050;-77
2021/01/03 09:16:54;;;;;;;29.30;19.57;;;2.30;99.90;;;;;;6219135;28;20064;-77
2021/01/03 09:20:02;;;;;;;36.10;19.13;;;2.30;99.90;;;;;;6211786;28;20054;-76
2021/01/03 09:23:07;;;;;;;32.63;20.03;;;2.40;99.90;;;;;;6216852;28;20045;-76
2021/01/03 09:26:11;;;;;;;32.87;20.40;;;2.40;99.90;;;;;;6211489;28;20121;-76
2021/01/03 09:29:15;;;;;;;31.00;17.43;;;2.40;99.90;;;;;;6212950;28;20042;-76
2021/01/03 09:32:27;;;;;;;31.40;19.70;;;2.40;99.90;;;;;;6215152;28;20072;-75
2021/01/03 09:35:41;;;;;;;32.47;19.50;;;2.50;99.90;;;;;;6212950;28;20551;-76
2021/01/03 09:39:10;;;;;;;33.60;20.20;;;2.50;99.90;;;;;;6215205;28;20048;-76
2021/01/03 09:42:36;;;;;;;33.67;21.23;;;2.50;99.90;;;;;;6201704;28;20133;-77
2021/01/03 09:46:00;;;;;;;31.90;19.53;;;2.50;99.90;;;;;;6214384;28;20054;-77
2021/01/03 09:49:14;;;;;;;32.23;18.80;;;2.50;99.90;;;;;;6211418;28;20053;-77
2021/01/03 09:52:24;;;;;;;30.47;20.40;;;2.60;99.90;;;;;;6214694;28;20057;-77
2021/01/03 09:55:28;;;;;;;27.97;17.50;;;2.70;99.90;;;;;;6216288;28;20054;-77
2021/01/03 09:58:38;;;;;;;35.03;21.27;;;2.70;99.90;;;;;;6211844;28;20052;-77
2021/01/03 10:01:39;;;;;;;30.20;20.30;;;2.70;99.80;;;;;;6213371;28;20099;-77
2021/01/03 10:04:43;;;;;;;24.30;17.63;;;2.90;99.90;;;;;;6208534;28;20064;-77
2021/01/03 10:07:45;;;;;;;24.93;17.30;;;3.00;99.90;;;;;;6220787;28;20054;-77
2021/01/03 10:10:49;;;;;;;33.72;19.58;;;3.10;99.40;;;;;;6211943;28;20396;-77
2021/01/03 10:13:57;;;;;;;30.10;20.30;;;3.10;99.00;;;;;;6216289;28;20080;-77
2021/01/03 10:17:13;;;;;;;35.53;18.50;;;3.00;99.10;;;;;;6214357;28;20073;-77
2021/01/03 10:20:38;;;;;;;32.07;20.23;;;2.90;99.00;;;;;;6213604;28;20054;-77
2021/01/03 10:23:43;;;;;;;33.20;23.47;;;2.80;99.10;;;;;;6213239;28;20438;-76
2021/01/03 10:26:47;;;;;;;33.83;22.53;;;2.80;99.50;;;;;;6210176;28;20054;-76
2021/01/03 10:29:49;;;;;;;31.90;21.27;;;2.80;99.70;;;;;;6214727;28;20046;-77
2021/01/03 10:32:50;;;;;;;36.27;24.90;;;2.90;99.90;;;;;;6207318;28;20192;-76
2021/01/03 10:35:52;;;;;;;36.93;22.23;;;2.90;99.40;;;;;;6221367;28;20057;-77
2021/01/03 10:38:53;;;;;;;35.97;23.80;;;2.90;99.30;;;;;;6212743;28;20042;-78
2021/01/03 10:41:54;;;;;;;39.43;25.60;;;2.90;99.20;;;;;;6213704;28;20053;-76
2021/01/03 10:44:57;;;;;;;36.87;22.77;;;2.90;99.20;;;;;;6217391;28;20061;-77
2021/01/03 10:47:58;;;;;;;39.00;22.07;;;2.90;99.30;;;;;;6217444;28;20039;-78
2021/01/03 10:50:59;;;;;;;41.20;24.73;;;2.90;99.20;;;;;;6215898;28;20152;-78
2021/01/03 10:54:01;;;;;;;38.67;25.07;;;2.90;99.20;;;;;;6218430;28;20054;-78
2021/01/03 10:57:03;;;;;;;38.17;24.63;;;2.90;99.10;;;;;;6216152;28;20403;-76
2021/01/03 11:00:07;;;;;;;43.43;26.53;;;2.90;99.40;;;;;;6214210;28;20045;-77
2021/01/03 11:03:09;;;;;;;41.77;26.17;;;2.90;99.30;;;;;;6221120;28;20066;-78
2021/01/03 11:06:10;;;;;;;35.95;24.05;;;2.90;99.30;;;;;;6216640;28;20050;-78
2021/01/03 11:09:15;;;;;;;36.10;24.73;;;3.00;99.70;;;;;;6221817;28;20046;-79
2021/01/03 11:12:18;;;;;;;35.03;22.40;;;3.10;99.60;;;;;;6221200;28;20133;-79
2021/01/03 11:15:20;;;;;;;31.45;21.08;;;3.20;99.70;;;;;;6217283;28;20078;-76
2021/01/03 11:18:21;;;;;;;42.00;25.17;;;3.20;99.40;;;;;;6213939;28;20459;-76
2021/01/03 11:21:23;;;;;;;36.10;22.90;;;3.20;99.40;;;;;;6218470;28;20045;-77
2021/01/03 11:24:24;;;;;;;31.10;23.00;;;3.30;99.30;;;;;;6222321;28;20522;-80
2021/01/03 11:27:26;;;;;;;35.67;21.70;;;3.30;99.30;;;;;;6218555;28;20131;-79
2021/01/03 11:30:28;;;;;;;36.17;21.75;;;3.40;99.20;;;;;;6222186;28;20049;-79
2021/01/03 11:33:29;;;;;;;37.50;21.90;;;3.30;99.30;;;;;;6220168;28;20062;-78
2021/01/03 11:36:31;;;;;;;35.05;22.88;;;3.40;99.00;;;;;;6221331;28;20074;-79
2021/01/03 11:39:33;;;;;;;36.15;23.90;;;3.40;99.00;;;;;;6214107;28;20124;-78
2021/01/03 11:42:37;;;;;;;33.65;23.40;;;3.50;99.00;;;;;;6218885;28;20606;-77
2021/01/03 11:45:39;;;;;;;33.85;25.95;;;3.50;98.80;;;;;;6216494;28;20172;-78
2021/01/03 11:48:41;;;;;;;32.78;23.25;;;3.60;98.50;;;;;;6214511;28;20106;-78
2021/01/03 11:51:48;;;;;;;30.35;20.95;;;3.60;97.90;;;;;;6216014;28;20077;-79
2021/01/03 11:54:49;;;;;;;50.60;41.27;;;3.60;97.70;;;;;;6214782;28;20435;-77
2021/01/03 11:57:50;;;;;;;83.32;59.53;;;3.70;97.60;;;;;;6214110;28;20061;-77
2021/01/03 12:00:53;;;;;;;47.20;40.55;;;3.80;97.50;;;;;;6213430;28;20048;-77
2021/01/03 12:03:55;;;;;;;33.88;22.02;;;3.80;97.50;;;;;;6214809;28;20049;-77
2021/01/03 12:06:58;;;;;;;27.45;17.80;;;3.80;97.40;;;;;;6215431;28;20046;-77
2021/01/03 12:09:59;;;;;;;28.73;20.27;;;3.80;96.40;;;;;;6217540;28;20053;-78
2021/01/03 12:13:00;;;;;;;27.90;18.08;;;3.80;96.80;;;;;;6224099;28;20058;-79
2021/01/03 12:16:03;;;;;;;22.75;16.95;;;3.90;97.30;;;;;;6222866;28;20054;-78
2021/01/03 12:19:04;;;;;;;26.30;18.60;;;3.90;96.90;;;;;;6213975;28;20049;-78
2021/01/03 12:22:06;;;;;;;29.75;21.30;;;4.00;96.90;;;;;;6221932;28;20042;-74
2021/01/03 12:25:11;;;;;;;23.98;17.10;;;4.00;97.00;;;;;;6246045;28;20090;-76
2021/01/03 12:28:12;;;;;;;28.50;17.70;;;4.00;96.60;;;;;;6252564;28;20050;-78
2021/01/03 12:31:15;;;;;;;31.95;20.15;;;4.10;96.80;;;;;;6240437;28;20050;-78
2021/01/03 12:34:19;;;;;;;24.95;16.38;;;4.30;99.90;;;;;;6248627;28;20064;-75
2021/01/03 12:37:21;;;;;;;23.55;16.73;;;4.80;98.50;;;;;;6248566;28;20037;-76
2021/01/03 12:40:22;;;;;;;25.77;18.15;;;5.20;96.80;;;;;;6230432;28;20081;-76
2021/01/03 12:43:24;;;;;;;29.55;21.08;;;5.00;96.20;;;;;;6221342;28;20133;-76
2021/01/03 12:46:28;;;;;;;26.05;19.00;;;4.80;96.00;;;;;;6212963;28;20073;-77
2021/01/03 12:49:30;;;;;;;25.77;19.23;;;4.60;96.00;;;;;;6217786;28;20072;-76
2021/01/03 12:52:32;;;;;;;23.77;16.92;;;4.50;96.20;;;;;;6217778;28;20078;-77
2021/01/03 12:55:33;;;;;;;25.65;18.88;;;4.40;96.00;;;;;;6228369;28;20046;-78
2021/01/03 12:58:35;;;;;;;29.98;19.20;;;4.30;96.50;;;;;;6212420;28;20042;-77
2021/01/03 13:01:38;;;;;;;28.08;20.05;;;4.30;96.30;;;;;;6217251;28;20042;-77
2021/01/03 13:04:41;;;;;;;20.58;15.90;;;4.30;96.50;;;;;;6227551;28;20065;-78
2021/01/03 13:07:42;;;;;;;40.35;27.05;;;4.30;96.50;;;;;;6216610;28;20050;-78
2021/01/03 13:10:43;;;;;;;28.45;19.05;;;4.40;99.40;;;;;;6224457;28;20049;-78
2021/01/03 13:13:45;;;;;;;21.83;17.05;;;4.90;99.50;;;;;;6226717;28;20124;-76
2021/01/03 13:16:47;;;;;;;16.70;12.82;;;5.30;97.90;;;;;;6218889;28;20054;-77
2021/01/03 13:19:49;;;;;;;17.13;13.07;;;6.10;97.60;;;;;;6214199;28;20670;-78
2021/01/03 13:22:50;;;;;;;21.33;14.20;;;6.40;95.00;;;;;;6219318;28;20453;-77
2021/01/03 13:25:53;;;;;;;15.07;12.35;;;6.60;94.40;;;;;;6220012;28;20038;-76
2021/01/03 13:28:54;;;;;;;21.05;13.70;;;6.60;93.50;;;;;;6217472;28;20102;-77
2021/01/03 13:31:59;;;;;;;15.80;13.52;;;6.90;92.90;;;;;;6215965;28;20424;-76
2021/01/03 13:35:00;;;;;;;15.27;11.07;;;7.20;90.60;;;;;;6213816;28;20041;-76
2021/01/03 13:38:02;;;;;;;16.88;13.30;;;7.10;89.40;;;;;;6217994;28;20045;-75
2021/01/03 13:41:03;;;;;;;17.48;13.00;;;7.00;87.80;;;;;;6225268;28;20168;-78
2021/01/03 13:44:05;;;;;;;19.98;15.23;;;6.40;89.80;;;;;;6221140;28;20137;-75
2021/01/03 13:47:07;;;;;;;28.65;18.30;;;5.80;90.70;;;;;;6219004;28;20105;-77
2021/01/03 13:50:10;;;;;;;153.52;78.88;;;5.40;91.60;;;;;;6212783;28;20120;-77
2021/01/03 13:53:11;;;;;;;105.47;59.55;;;5.10;92.50;;;;;;6210810;28;20045;-78
2021/01/03 13:56:12;;;;;;;30.05;19.33;;;4.90;92.70;;;;;;6215121;28;20048;-76
2021/01/03 13:59:14;;;;;;;27.35;19.10;;;4.70;93.00;;;;;;6219724;28;20164;-77
2021/01/03 14:02:16;;;;;;;98.65;78.22;;;4.50;93.30;;;;;;6215680;28;20493;-76
2021/01/03 14:05:20;;;;;;;21.35;15.75;;;4.40;93.70;;;;;;6215988;28;20503;-76
2021/01/03 14:08:22;;;;;;;20.02;14.55;;;4.30;93.80;;;;;;6212692;28;20057;-76
2021/01/03 14:11:25;;;;;;;21.20;15.75;;;4.20;94.00;;;;;;6213782;28;20045;-76
2021/01/03 14:14:27;;;;;;;24.92;17.30;;;4.10;94.40;;;;;;6216079;28;20050;-76
2021/01/03 14:17:29;;;;;;;21.88;15.60;;;4.00;94.50;;;;;;6210454;28;20054;-76
2021/01/03 14:20:31;;;;;;;26.40;17.05;;;3.90;94.70;;;;;;6212971;28;20077;-76
2021/01/03 14:23:32;;;;;;;24.40;16.00;;;3.90;94.90;;;;;;6210644;28;20644;-77
2021/01/03 14:26:35;;;;;;;24.70;16.98;;;3.90;95.00;;;;;;6209842;28;20046;-77
2021/01/03 14:29:36;;;;;;;28.92;20.65;;;3.80;95.10;;;;;;6215020;28;20049;-76
2021/01/03 14:32:40;;;;;;;29.40;20.33;;;3.80;95.50;;;;;;6213907;28;20056;-78
2021/01/03 14:35:46;;;;;;;25.23;17.52;;;3.70;95.60;;;;;;6219782;28;20137;-77
2021/01/03 14:38:50;;;;;;;24.05;17.77;;;3.70;95.70;;;;;;6220251;28;20057;-77
2021/01/03 14:41:55;;;;;;;25.60;17.77;;;3.70;95.70;;;;;;6218077;28;20535;-75
2021/01/03 14:45:01;;;;;;;26.58;17.75;;;3.70;96.00;;;;;;6209246;28;20088;-77
2021/01/03 14:48:22;;;;;;;25.95;18.80;;;3.70;96.10;;;;;;6216610;28;20057;-75
2021/01/03 14:51:34;;;;;;;26.42;18.85;;;3.70;96.20;;;;;;6207580;28;20420;-76
2021/01/03 14:54:51;;;;;;;28.35;18.02;;;3.60;96.50;;;;;;6214074;28;20133;-76
2021/01/03 14:57:53;;;;;;;31.55;21.00;;;3.60;96.60;;;;;;6211646;28;20046;-77
2021/01/03 15:00:55;;;;;;;27.80;18.67;;;3.60;96.80;;;;;;6204861;28;20054;-76
2021/01/03 15:04:11;;;;;;;44.05;26.38;;;3.60;97.00;;;;;;6214415;28;20041;-76
2021/01/03 15:07:16;;;;;;;32.22;21.45;;;3.70;99.00;;;;;;6208870;28;20058;-77
2021/01/03 15:10:19;;;;;;;28.42;18.42;;;4.00;99.20;;;;;;6211405;28;20041;-77
2021/01/03 15:13:21;;;;;;;29.42;21.60;;;4.00;97.80;;;;;;6211156;28;20133;-77
2021/01/03 15:16:25;;;;;;;24.88;17.42;;;3.90;97.30;;;;;;6215972;28;20128;-77
2021/01/03 15:19:36;;;;;;;27.75;21.33;;;3.80;97.40;;;;;;6208438;28;20130;-77
2021/01/03 15:22:41;;;;;;;50.92;35.90;;;3.70;97.50;;;;;;6220883;28;20102;-76
2021/01/03 15:25:46;;;;;;;38.85;22.58;;;3.60;97.50;;;;;;6215880;28;20038;-77
2021/01/03 15:28:52;;;;;;;33.30;23.38;;;3.60;97.60;;;;;;6214321;28;20061;-76
2021/01/03 15:31:56;;;;;;;35.38;23.58;;;3.50;97.60;;;;;;6219431;28;20496;-76
2021/01/03 15:35:03;;;;;;;30.10;23.17;;;3.50;97.70;;;;;;6207319;28;20058;-77
2021/01/03 15:38:07;;;;;;;31.65;22.92;;;3.50;97.70;;;;;;6214648;28;20046;-76
2021/01/03 15:41:23;;;;;;;33.08;21.45;;;3.50;97.90;;;;;;6216794;28;20470;-78
2021/01/03 15:44:28;;;;;;;35.77;21.10;;;3.40;97.80;;;;;;6219863;28;20100;-76
2021/01/03 15:47:35;;;;;;;32.97;22.27;;;3.40;98.00;;;;;;6212883;28;20042;-78
2021/01/03 15:50:37;;;;;;;30.47;21.23;;;3.40;98.20;;;;;;6227876;28;20067;-76
2021/01/03 15:53:39;;;;;;;31.30;20.08;;;3.40;98.40;;;;;;6245289;28;20041;-75
2021/01/03 15:56:45;;;;;;;31.00;20.85;;;3.30;98.50;;;;;;6226524;28;20133;-77
2021/01/03 15:59:48;;;;;;;27.03;18.37;;;3.30;98.60;;;;;;6227013;28;20116;-75